Aérodrome :
LOGIN :

S'inscrire | Disclaimer

   EN    FR    IT 

 










Légende :    VFR   VFR Marginal   IFR   IFR Intensif   IFR Très Intensif
Visi : 
Plafond : 
>= 8 km
>= 3000ft
5 à 8 km
1000 à 3000 ft
1500m à 5 km
500 à 1000 ft
800 à 1500m
200 à 500 ft
< 800m
< 200 ft
Symboles :   Orages  Brouillard  Fortes neiges  Fortes précipitations  Vent > 20 kt
SIGMETs :   Divers  Orages  Givrage  Turbulence  Onde Orograph.  Cendres Volcan.






- Altitude de l'aérodrome : 348 ft
- Code IATA : STN


EGSS - London Stansted

DERNIER METAR :
  • 281250Z AUTO 17015KT 8000 -RA OVC007/// //////TCU 05/04 Q1004

METARs EXPIRÉS :
  • 281220Z AUTO 16015KT 9999 -RA BKN007 OVC013 05/04 Q1005
  • 281150Z AUTO 16015KT 9999 -RA BKN009/// OVC014/// //////TCU 05/04 Q1005
  • 281120Z AUTO 16016KT 9000 -RA OVC010/// //////TCU 05/03 Q1006
  • 281050Z AUTO 16016KT 9000 -RA BKN012 OVC022 04/03 Q1007
  • 281020Z AUTO 16012KT 9999 -RA BKN014 OVC035 04/03 Q1008

TAF AMD TAF EGSS
Valide du 28 à 12h jusqu'au 29 à 18h UTC


281149Z 2812/2918 16014KT 9999 SCT010 BKN020
TEMPO 2812/2910 4500 RADZ BKN006
TEMPO 2812/2815 16018G28KT
BECMG 2814/2817 22015KT
TEMPO 2815/2903 21018G30KT
BECMG 2903/2906 20022G35KT
PROB30
TEMPO 2907/2910 1400 +RA
BECMG 2908/2910 26016G26KT
PROB30
TEMPO 2910/2918 7000 SHRA BKN014
ATIS : +44 1279 669 325



MET'MAP, la Météo Aéronautique d'un coup d'oeil ! - Copyright ORBIFLY Décembre 2007 - Disclaimer

ORBIFLY MET'MAP TEAM :

Programmation & Développement : Alexandra Zaïnal
Sur une idée originale de : Baudouin d'Aumeries
Assistance à la programmation : Marc-Olivier Méhu
Soutien technique & logistique : Manuel Goepfert

Contact : metmap@orbifly.com




SOURCES & CREDITS :

   NOAA